Portada
METAR-TAF:

METAR-TAF

Aeroports :

Shenzhen, Xina

latitud: 22-33N, longitud: 114-06E, altitud: 18 m

Observació

L'informe es va fer fa 21 minuts, a les 16:00 UTC
Vent 14 kt del Nord-Est
Temperatura 19°C
Humitat 56%
Pressió 1020 hPa
Visibilitat 10 km o més
sense núvols per sota de 1500 mi sense presència de cumulonimbus.

METAR: ZGSZ 191600Z 04007MPS CAVOK 19/10 Q1020 NOSIG

Hora: 00:21 (16:21 UTC)

Pronòstic

L'informe es va fer fa 7 hores i 12 minuts, a les 09:09 UTC
Pronòstic vàlid del 19 a les 12 UTC al 20 a les 12 UTC
Vent 8 kt del Est/Nord-Est
Visibilitat: 8000 m
Escasses núvols a una alçada de 4000 ft
Evolucionant progressivament
l' 20 a les 05 UTC al 20 a les 06 UTC
Vent 8 kt del Oest/Nord-Oest

TAF: ZGSZ 190909Z 1912/2012 06004MPS 8000 FEW040 TX24/2006Z TN16/1922Z BECMG 2005/2006 30004MPS

Observacions i pronòstics meteorològics de més de 4000 aeroports (METAR i TAF).

Les estacions disponibles són els punts grocs i vermells al mapa.

Posi el ratolí al punt desitjat per veure el nom de l'estació.

Feu clic per veure les observacions i els pronòstics meteorològics.

Per canviar el mapa: feu clic els botons verds amb una creu de color negre per apropar; al botó verd amb un guió per allunyar la imatge; o en les fletxes verdes per a mapes adjacents.


METAR-TAF: